Terminal Aerodrome Forecast
Issued by NWS Amarillo, TX

Home | Current Version | Previous Version | Text Only | Print | Product List | Glossary On
Versions: 1 2 3 4 5 6 7 8 9 10 11 12 13 14 15 16 17 18
000
FTUS44 KAMA 280527
TAFAMA
TAF
KAMA 280527Z 2806/2906 31011KT P6SM FEW100
     FM281500 22011KT P6SM FEW100
     FM281800 21015G25KT P6SM SCT080
     FM290000 02012KT P6SM VCSH OVC100
     FM290300 03015KT P6SM VCSH OVC040=

USA.gov is the U.S. government's official web portal to all federal, state and local government web resources and services.